sensor_id;sensor_type;location;lat;lon;timestamp;pressure;altitude;pressure_sealevel;temperature;humidity
15914;BME280;8055;51.930;8.840;2023-04-15T00:02:00;76112.31;;;-145.72;100.00
15914;BME280;8055;51.930;8.840;2023-04-15T00:04:26;76114.41;;;-145.72;100.00
15914;BME280;8055;51.930;8.840;2023-04-15T00:06:52;76120.59;;;-145.72;100.00
15914;BME280;8055;51.930;8.840;2023-04-15T00:09:18;76110.25;;;-145.72;100.00
15914;BME280;8055;51.930;8.840;2023-04-15T00:11:44;76099.91;;;-145.72;100.00
15914;BME280;8055;51.930;8.840;2023-04-15T00:14:14;76120.59;;;-145.72;100.00
15914;BME280;8055;51.930;8.840;2023-04-15T00:16:39;76108.19;;;-145.72;100.00
15914;BME280;8055;51.930;8.840;2023-04-15T00:19:05;76114.41;;;-145.72;100.00
15914;BME280;8055;51.930;8.840;2023-04-15T00:21:30;76108.19;;;-145.72;100.00
15914;BME280;8055;51.930;8.840;2023-04-15T00:23:56;76116.47;;;-145.72;100.00
15914;BME280;8055;51.930;8.840;2023-04-15T00:26:22;76110.25;;;-145.72;100.00
15914;BME280;8055;51.930;8.840;2023-04-15T00:28:47;76104.06;;;-145.72;100.00
15914;BME280;8055;51.930;8.840;2023-04-15T00:31:13;76110.25;;;-145.72;100.00
15914;BME280;8055;51.930;8.840;2023-04-15T00:33:38;76108.19;;;-145.72;100.00
15914;BME280;8055;51.930;8.840;2023-04-15T00:36:05;76114.41;;;-145.72;100.00
15914;BME280;8055;51.930;8.840;2023-04-15T00:38:30;76116.47;;;-145.72;100.00
15914;BME280;8055;51.930;8.840;2023-04-15T00:40:56;76108.19;;;-145.72;100.00
15914;BME280;8055;51.930;8.840;2023-04-15T00:43:21;76114.41;;;-145.72;100.00
15914;BME280;8055;51.930;8.840;2023-04-15T00:45:46;76122.69;;;-145.72;100.00
15914;BME280;8055;51.930;8.840;2023-04-15T00:48:12;76124.75;;;-145.72;100.00
15914;BME280;8055;51.930;8.840;2023-04-15T00:50:37;76126.81;;;-145.72;100.00
15914;BME280;8055;51.930;8.840;2023-04-15T00:53:03;76124.75;;;-145.72;100.00
15914;BME280;8055;51.930;8.840;2023-04-15T00:55:28;76126.81;;;-145.72;100.00
15914;BME280;8055;51.930;8.840;2023-04-15T00:57:55;76120.59;;;-145.72;100.00
15914;BME280;8055;51.930;8.840;2023-04-15T01:00:21;76122.69;;;-145.72;100.00
15914;BME280;8055;51.930;8.840;2023-04-15T01:02:46;76114.41;;;-145.72;100.00
15914;BME280;8055;51.930;8.840;2023-04-15T01:05:12;76108.19;;;-145.72;100.00
15914;BME280;8055;51.930;8.840;2023-04-15T01:07:38;76106.13;;;-145.72;100.00
15914;BME280;8055;51.930;8.840;2023-04-15T01:10:03;76114.41;;;-145.72;100.00
15914;BME280;8055;51.930;8.840;2023-04-15T01:12:31;76133.03;;;-145.72;100.00
15914;BME280;8055;51.930;8.840;2023-04-15T01:14:58;76137.16;;;-145.72;100.00
15914;BME280;8055;51.930;8.840;2023-04-15T01:17:24;76130.94;;;-145.72;100.00
15914;BME280;8055;51.930;8.840;2023-04-15T01:19:50;76135.09;;;-145.72;100.00
15914;BME280;8055;51.930;8.840;2023-04-15T01:22:16;76126.81;;;-145.72;100.00
15914;BME280;8055;51.930;8.840;2023-04-15T01:24:53;76126.81;;;-145.72;100.00
15914;BME280;8055;51.930;8.840;2023-04-15T01:27:20;76135.09;;;-145.72;100.00
15914;BME280;8055;51.930;8.840;2023-04-15T01:29:46;76137.16;;;-145.72;100.00
15914;BME280;8055;51.930;8.840;2023-04-15T01:32:11;76135.09;;;-145.72;100.00
15914;BME280;8055;51.930;8.840;2023-04-15T01:34:37;76135.09;;;-145.72;100.00
15914;BME280;8055;51.930;8.840;2023-04-15T01:37:02;76141.31;;;-145.72;100.00
15914;BME280;8055;51.930;8.840;2023-04-15T01:39:27;76139.22;;;-145.72;100.00
15914;BME280;8055;51.930;8.840;2023-04-15T01:41:53;76145.44;;;-145.72;100.00
15914;BME280;8055;51.930;8.840;2023-04-15T01:44:18;76135.09;;;-145.72;100.00
15914;BME280;8055;51.930;8.840;2023-04-15T01:46:44;76139.22;;;-145.72;100.00
15914;BME280;8055;51.930;8.840;2023-04-15T01:49:09;76137.16;;;-145.72;100.00
15914;BME280;8055;51.930;8.840;2023-04-15T01:51:34;76133.03;;;-145.72;100.00
15914;BME280;8055;51.930;8.840;2023-04-15T01:54:00;76139.22;;;-145.72;100.00
15914;BME280;8055;51.930;8.840;2023-04-15T01:56:25;76141.31;;;-145.72;100.00
15914;BME280;8055;51.930;8.840;2023-04-15T01:58:51;76137.16;;;-145.72;100.00
15914;BME280;8055;51.930;8.840;2023-04-15T02:01:17;76143.38;;;-145.72;100.00
15914;BME280;8055;51.930;8.840;2023-04-15T02:03:44;76141.31;;;-145.72;100.00
15914;BME280;8055;51.930;8.840;2023-04-15T02:06:10;76147.50;;;-145.72;100.00
15914;BME280;8055;51.930;8.840;2023-04-15T02:08:36;76153.72;;;-145.72;100.00
15914;BME280;8055;51.930;8.840;2023-04-15T02:11:01;76153.72;;;-145.72;100.00
15914;BME280;8055;51.930;8.840;2023-04-15T02:13:27;76145.44;;;-145.72;100.00
15914;BME280;8055;51.930;8.840;2023-04-15T02:15:53;76151.66;;;-145.72;100.00
15914;BME280;8055;51.930;8.840;2023-04-15T02:18:20;76153.72;;;-145.72;100.00
15914;BME280;8055;51.930;8.840;2023-04-15T02:20:45;76159.94;;;-145.72;100.00
15914;BME280;8055;51.930;8.840;2023-04-15T02:23:11;76159.94;;;-145.72;100.00
15914;BME280;8055;51.930;8.840;2023-04-15T02:25:37;76164.06;;;-145.72;100.00
15914;BME280;8055;51.930;8.840;2023-04-15T02:28:04;76157.84;;;-145.72;100.00
15914;BME280;8055;51.930;8.840;2023-04-15T02:30:31;76149.56;;;-145.72;100.00
15914;BME280;8055;51.930;8.840;2023-04-15T02:32:56;76145.44;;;-145.72;100.00
15914;BME280;8055;51.930;8.840;2023-04-15T02:35:22;76162.00;;;-145.72;100.00
15914;BME280;8055;51.930;8.840;2023-04-15T02:37:50;76159.94;;;-145.72;100.00
15914;BME280;8055;51.930;8.840;2023-04-15T02:40:16;76162.00;;;-145.72;100.00
15914;BME280;8055;51.930;8.840;2023-04-15T02:42:42;76166.13;;;-145.72;100.00
15914;BME280;8055;51.930;8.840;2023-04-15T02:45:09;76157.84;;;-145.72;100.00
15914;BME280;8055;51.930;8.840;2023-04-15T02:47:34;76155.78;;;-145.72;100.00
15914;BME280;8055;51.930;8.840;2023-04-15T02:50:03;76159.94;;;-145.72;100.00
15914;BME280;8055;51.930;8.840;2023-04-15T02:52:28;76157.84;;;-145.72;100.00
15914;BME280;8055;51.930;8.840;2023-04-15T02:54:54;76145.44;;;-145.72;100.00
15914;BME280;8055;51.930;8.840;2023-04-15T02:57:25;76153.72;;;-145.72;100.00
15914;BME280;8055;51.930;8.840;2023-04-15T02:59:50;76159.94;;;-145.72;100.00
15914;BME280;8055;51.930;8.840;2023-04-15T03:02:16;76149.56;;;-145.72;100.00
15914;BME280;8055;51.930;8.840;2023-04-15T03:04:41;76153.72;;;-145.72;100.00
15914;BME280;8055;51.930;8.840;2023-04-15T03:07:06;76147.50;;;-145.72;100.00
15914;BME280;8055;51.930;8.840;2023-04-15T03:09:32;76151.66;;;-145.72;100.00
15914;BME280;8055;51.930;8.840;2023-04-15T03:11:57;76151.66;;;-145.72;100.00
15914;BME280;8055;51.930;8.840;2023-04-15T03:14:23;76153.72;;;-145.72;100.00
15914;BME280;8055;51.930;8.840;2023-04-15T03:16:48;76155.78;;;-145.72;100.00
15914;BME280;8055;51.930;8.840;2023-04-15T03:19:14;76155.78;;;-145.72;100.00
15914;BME280;8055;51.930;8.840;2023-04-15T03:21:40;76157.84;;;-145.72;100.00
15914;BME280;8055;51.930;8.840;2023-04-15T03:24:06;76166.13;;;-145.72;100.00
15914;BME280;8055;51.930;8.840;2023-04-15T03:26:31;76168.19;;;-145.72;100.00
15914;BME280;8055;51.930;8.840;2023-04-15T03:28:56;76176.47;;;-145.72;100.00
15914;BME280;8055;51.930;8.840;2023-04-15T03:31:22;76180.63;;;-145.72;100.00
15914;BME280;8055;51.930;8.840;2023-04-15T03:33:48;76180.63;;;-145.72;100.00
15914;BME280;8055;51.930;8.840;2023-04-15T03:36:14;76186.81;;;-145.72;100.00
15914;BME280;8055;51.930;8.840;2023-04-15T03:38:39;76180.63;;;-145.72;100.00
15914;BME280;8055;51.930;8.840;2023-04-15T03:41:05;76172.34;;;-145.72;100.00
15914;BME280;8055;51.930;8.840;2023-04-15T03:43:31;76188.91;;;-145.72;100.00
15914;BME280;8055;51.930;8.840;2023-04-15T03:45:57;76188.91;;;-145.72;100.00
15914;BME280;8055;51.930;8.840;2023-04-15T03:48:22;76193.03;;;-145.72;100.00
15914;BME280;8055;51.930;8.840;2023-04-15T03:50:48;76190.97;;;-145.72;100.00
15914;BME280;8055;51.930;8.840;2023-04-15T03:53:14;76197.19;;;-145.72;100.00
15914;BME280;8055;51.930;8.840;2023-04-15T03:55:40;76197.19;;;-145.72;100.00
15914;BME280;8055;51.930;8.840;2023-04-15T03:58:05;76199.25;;;-145.72;100.00
15914;BME280;8055;51.930;8.840;2023-04-15T04:00:31;76195.09;;;-145.72;100.00
15914;BME280;8055;51.930;8.840;2023-04-15T04:02:57;76197.19;;;-145.72;100.00
15914;BME280;8055;51.930;8.840;2023-04-15T04:05:22;76199.25;;;-145.72;100.00
15914;BME280;8055;51.930;8.840;2023-04-15T04:07:47;76197.19;;;-145.72;100.00
15914;BME280;8055;51.930;8.840;2023-04-15T04:10:13;76190.97;;;-145.72;100.00
15914;BME280;8055;51.930;8.840;2023-04-15T04:12:38;76184.75;;;-145.72;100.00
15914;BME280;8055;51.930;8.840;2023-04-15T04:15:04;76184.75;;;-145.72;100.00
15914;BME280;8055;51.930;8.840;2023-04-15T04:17:29;76182.69;;;-145.72;100.00
15914;BME280;8055;51.930;8.840;2023-04-15T04:19:55;76180.63;;;-145.72;100.00
15914;BME280;8055;51.930;8.840;2023-04-15T04:22:21;76172.34;;;-145.72;100.00
15914;BME280;8055;51.930;8.840;2023-04-15T04:24:48;76164.06;;;-145.72;100.00
15914;BME280;8055;51.930;8.840;2023-04-15T04:27:13;76155.78;;;-145.72;100.00
15914;BME280;8055;51.930;8.840;2023-04-15T04:29:38;76162.00;;;-145.72;100.00
15914;BME280;8055;51.930;8.840;2023-04-15T04:32:04;76155.78;;;-145.72;100.00
15914;BME280;8055;51.930;8.840;2023-04-15T04:34:30;76151.66;;;-145.72;100.00
15914;BME280;8055;51.930;8.840;2023-04-15T04:36:56;76153.72;;;-145.72;100.00
15914;BME280;8055;51.930;8.840;2023-04-15T04:39:22;76151.66;;;-145.72;100.00
15914;BME280;8055;51.930;8.840;2023-04-15T04:41:48;76143.38;;;-145.72;100.00
15914;BME280;8055;51.930;8.840;2023-04-15T04:44:14;76139.22;;;-145.72;100.00
15914;BME280;8055;51.930;8.840;2023-04-15T04:46:40;76133.03;;;-145.72;100.00
15914;BME280;8055;51.930;8.840;2023-04-15T04:49:05;76122.69;;;-145.72;100.00
15914;BME280;8055;51.930;8.840;2023-04-15T04:51:31;76120.59;;;-145.72;100.00
15914;BME280;8055;51.930;8.840;2023-04-15T04:53:56;76122.69;;;-145.72;100.00
15914;BME280;8055;51.930;8.840;2023-04-15T04:56:22;76118.53;;;-145.72;100.00
15914;BME280;8055;51.930;8.840;2023-04-15T04:58:47;76112.31;;;-145.72;100.00
15914;BME280;8055;51.930;8.840;2023-04-15T05:01:12;76114.41;;;-145.72;100.00
15914;BME280;8055;51.930;8.840;2023-04-15T05:03:38;76112.31;;;-145.72;100.00
15914;BME280;8055;51.930;8.840;2023-04-15T05:06:03;76114.41;;;-145.72;100.00
15914;BME280;8055;51.930;8.840;2023-04-15T05:08:31;76112.31;;;-145.72;100.00
15914;BME280;8055;51.930;8.840;2023-04-15T05:10:57;76106.13;;;-145.72;100.00
15914;BME280;8055;51.930;8.840;2023-04-15T05:13:22;76106.13;;;-145.72;100.00
15914;BME280;8055;51.930;8.840;2023-04-15T05:15:48;76104.06;;;-145.72;100.00
15914;BME280;8055;51.930;8.840;2023-04-15T05:18:13;76101.97;;;-145.72;100.00
15914;BME280;8055;51.930;8.840;2023-04-15T05:20:38;76089.56;;;-145.72;100.00
15914;BME280;8055;51.930;8.840;2023-04-15T05:23:04;76081.28;;;-145.72;100.00
15914;BME280;8055;51.930;8.840;2023-04-15T05:25:30;76075.09;;;-145.72;100.00
15914;BME280;8055;51.930;8.840;2023-04-15T05:27:55;76073.00;;;-145.72;100.00
15914;BME280;8055;51.930;8.840;2023-04-15T05:30:21;76070.94;;;-145.72;100.00
15914;BME280;8055;51.930;8.840;2023-04-15T05:32:46;76066.81;;;-145.72;100.00
15914;BME280;8055;51.930;8.840;2023-04-15T05:35:12;76066.81;;;-145.72;100.00
15914;BME280;8055;51.930;8.840;2023-04-15T05:37:37;76064.72;;;-145.72;100.00
15914;BME280;8055;51.930;8.840;2023-04-15T05:40:02;76056.47;;;-145.72;100.00
15914;BME280;8055;51.930;8.840;2023-04-15T05:42:28;76070.94;;;-145.72;100.00
15914;BME280;8055;51.930;8.840;2023-04-15T05:44:54;76066.81;;;-145.72;100.00
15914;BME280;8055;51.930;8.840;2023-04-15T05:47:19;76064.72;;;-145.72;100.00
15914;BME280;8055;51.930;8.840;2023-04-15T05:49:45;76064.72;;;-145.72;100.00
15914;BME280;8055;51.930;8.840;2023-04-15T05:52:11;76062.66;;;-145.72;100.00
15914;BME280;8055;51.930;8.840;2023-04-15T05:54:36;76060.59;;;-145.72;100.00
15914;BME280;8055;51.930;8.840;2023-04-15T05:57:02;76064.72;;;-145.72;100.00
15914;BME280;8055;51.930;8.840;2023-04-15T05:59:28;76060.59;;;-145.72;100.00
15914;BME280;8055;51.930;8.840;2023-04-15T06:01:53;76062.66;;;-145.72;100.00
15914;BME280;8055;51.930;8.840;2023-04-15T06:04:19;76060.59;;;-145.72;100.00
15914;BME280;8055;51.930;8.840;2023-04-15T06:06:44;76056.47;;;-145.72;100.00
15914;BME280;8055;51.930;8.840;2023-04-15T06:09:10;76058.53;;;-145.72;100.00
15914;BME280;8055;51.930;8.840;2023-04-15T06:11:36;76066.81;;;-145.72;100.00
15914;BME280;8055;51.930;8.840;2023-04-15T06:14:01;76081.28;;;-145.72;100.00
15914;BME280;8055;51.930;8.840;2023-04-15T06:16:27;76079.22;;;-145.72;100.00
15914;BME280;8055;51.930;8.840;2023-04-15T06:18:52;76070.94;;;-145.72;100.00
15914;BME280;8055;51.930;8.840;2023-04-15T06:21:17;76062.66;;;-145.72;100.00
15914;BME280;8055;51.930;8.840;2023-04-15T06:23:43;76064.72;;;-145.72;100.00
15914;BME280;8055;51.930;8.840;2023-04-15T06:26:09;76066.81;;;-145.72;100.00
15914;BME280;8055;51.930;8.840;2023-04-15T06:28:34;76068.88;;;-145.72;100.00
15914;BME280;8055;51.930;8.840;2023-04-15T06:31:00;76073.00;;;-145.72;100.00
15914;BME280;8055;51.930;8.840;2023-04-15T06:33:26;76066.81;;;-145.72;100.00
15914;BME280;8055;51.930;8.840;2023-04-15T06:35:51;76066.81;;;-145.72;100.00
15914;BME280;8055;51.930;8.840;2023-04-15T06:38:17;76066.81;;;-145.72;100.00
15914;BME280;8055;51.930;8.840;2023-04-15T06:40:42;76066.81;;;-145.72;100.00
15914;BME280;8055;51.930;8.840;2023-04-15T06:43:07;76073.00;;;-145.72;100.00
15914;BME280;8055;51.930;8.840;2023-04-15T06:45:33;76062.66;;;-145.72;100.00
15914;BME280;8055;51.930;8.840;2023-04-15T06:47:58;76075.09;;;-145.72;100.00
15914;BME280;8055;51.930;8.840;2023-04-15T06:50:24;76070.94;;;-145.72;100.00
15914;BME280;8055;51.930;8.840;2023-04-15T06:52:49;76070.94;;;-145.72;100.00
15914;BME280;8055;51.930;8.840;2023-04-15T06:55:14;76077.16;;;-145.72;100.00
15914;BME280;8055;51.930;8.840;2023-04-15T06:57:40;76077.16;;;-145.72;100.00
15914;BME280;8055;51.930;8.840;2023-04-15T07:00:06;76073.00;;;-145.72;100.00
15914;BME280;8055;51.930;8.840;2023-04-15T07:02:32;76077.16;;;-145.72;100.00
15914;BME280;8055;51.930;8.840;2023-04-15T07:04:57;76070.94;;;-145.72;100.00
15914;BME280;8055;51.930;8.840;2023-04-15T07:07:23;76073.00;;;-145.72;100.00
15914;BME280;8055;51.930;8.840;2023-04-15T07:09:48;76070.94;;;-145.72;100.00
15914;BME280;8055;51.930;8.840;2023-04-15T07:12:14;76073.00;;;-145.72;100.00
15914;BME280;8055;51.930;8.840;2023-04-15T07:14:39;76077.16;;;-145.72;100.00
15914;BME280;8055;51.930;8.840;2023-04-15T07:17:04;76079.22;;;-145.72;100.00
15914;BME280;8055;51.930;8.840;2023-04-15T07:19:30;76081.28;;;-145.72;100.00
15914;BME280;8055;51.930;8.840;2023-04-15T07:21:56;76079.22;;;-145.72;100.00
15914;BME280;8055;51.930;8.840;2023-04-15T07:24:21;76077.16;;;-145.72;100.00
15914;BME280;8055;51.930;8.840;2023-04-15T07:26:50;76085.44;;;-145.72;100.00
15914;BME280;8055;51.930;8.840;2023-04-15T07:29:16;76085.44;;;-145.72;100.00
15914;BME280;8055;51.930;8.840;2023-04-15T07:31:41;76075.09;;;-145.72;100.00
15914;BME280;8055;51.930;8.840;2023-04-15T07:34:06;76075.09;;;-145.72;100.00
15914;BME280;8055;51.930;8.840;2023-04-15T07:36:32;76079.22;;;-145.72;100.00
15914;BME280;8055;51.930;8.840;2023-04-15T07:38:57;76077.16;;;-145.72;100.00
15914;BME280;8055;51.930;8.840;2023-04-15T07:41:23;76077.16;;;-145.72;100.00
15914;BME280;8055;51.930;8.840;2023-04-15T07:43:48;76077.16;;;-145.72;100.00
15914;BME280;8055;51.930;8.840;2023-04-15T07:46:14;76081.28;;;-145.72;100.00
15914;BME280;8055;51.930;8.840;2023-04-15T07:48:39;76081.28;;;-145.72;100.00
15914;BME280;8055;51.930;8.840;2023-04-15T07:51:05;76079.22;;;-145.72;100.00
15914;BME280;8055;51.930;8.840;2023-04-15T07:53:30;76068.88;;;-145.72;100.00
15914;BME280;8055;51.930;8.840;2023-04-15T07:55:57;76083.34;;;-145.72;100.00
15914;BME280;8055;51.930;8.840;2023-04-15T07:58:22;76077.16;;;-145.72;100.00
15914;BME280;8055;51.930;8.840;2023-04-15T08:00:48;76081.28;;;-145.72;100.00
15914;BME280;8055;51.930;8.840;2023-04-15T08:03:13;76073.00;;;-145.72;100.00
15914;BME280;8055;51.930;8.840;2023-04-15T08:05:39;76068.88;;;-145.72;100.00
15914;BME280;8055;51.930;8.840;2023-04-15T08:08:05;76075.09;;;-145.72;100.00
15914;BME280;8055;51.930;8.840;2023-04-15T08:10:31;76070.94;;;-145.72;100.00
15914;BME280;8055;51.930;8.840;2023-04-15T08:12:56;76070.94;;;-145.72;100.00
15914;BME280;8055;51.930;8.840;2023-04-15T08:15:22;76064.72;;;-145.72;100.00
15914;BME280;8055;51.930;8.840;2023-04-15T08:17:48;76073.00;;;-145.72;100.00
15914;BME280;8055;51.930;8.840;2023-04-15T08:20:13;76077.16;;;-145.72;100.00
15914;BME280;8055;51.930;8.840;2023-04-15T08:22:38;76077.16;;;-145.72;100.00
15914;BME280;8055;51.930;8.840;2023-04-15T08:25:05;76064.72;;;-145.72;100.00
15914;BME280;8055;51.930;8.840;2023-04-15T08:27:31;76075.09;;;-145.72;100.00
15914;BME280;8055;51.930;8.840;2023-04-15T08:29:56;76068.88;;;-145.72;100.00
15914;BME280;8055;51.930;8.840;2023-04-15T08:32:21;76066.81;;;-145.72;100.00
15914;BME280;8055;51.930;8.840;2023-04-15T08:34:47;76062.66;;;-145.72;100.00
15914;BME280;8055;51.930;8.840;2023-04-15T08:37:12;76066.81;;;-145.72;100.00
15914;BME280;8055;51.930;8.840;2023-04-15T08:39:38;76070.94;;;-145.72;100.00
15914;BME280;8055;51.930;8.840;2023-04-15T08:42:08;76066.81;;;-145.72;100.00
15914;BME280;8055;51.930;8.840;2023-04-15T08:44:36;76064.72;;;-145.72;100.00
15914;BME280;8055;51.930;8.840;2023-04-15T08:47:02;76060.59;;;-145.72;100.00
15914;BME280;8055;51.930;8.840;2023-04-15T08:49:31;76056.47;;;-145.72;100.00
15914;BME280;8055;51.930;8.840;2023-04-15T08:51:58;76056.47;;;-145.72;100.00
15914;BME280;8055;51.930;8.840;2023-04-15T08:54:23;76050.25;;;-145.72;100.00
15914;BME280;8055;51.930;8.840;2023-04-15T08:56:49;76056.47;;;-145.72;100.00
15914;BME280;8055;51.930;8.840;2023-04-15T08:59:15;76056.47;;;-145.72;100.00
15914;BME280;8055;51.930;8.840;2023-04-15T09:01:41;76062.66;;;-145.72;100.00
15914;BME280;8055;51.930;8.840;2023-04-15T09:04:06;76060.59;;;-145.72;100.00
15914;BME280;8055;51.930;8.840;2023-04-15T09:06:32;76060.59;;;-145.72;100.00
15914;BME280;8055;51.930;8.840;2023-04-15T09:08:57;76058.53;;;-145.72;100.00
15914;BME280;8055;51.930;8.840;2023-04-15T09:11:23;76062.66;;;-145.72;100.00
15914;BME280;8055;51.930;8.840;2023-04-15T09:13:49;76058.53;;;-145.72;100.00
15914;BME280;8055;51.930;8.840;2023-04-15T09:16:14;76062.66;;;-145.72;100.00
15914;BME280;8055;51.930;8.840;2023-04-15T09:18:40;76052.31;;;-145.72;100.00
15914;BME280;8055;51.930;8.840;2023-04-15T09:21:11;76052.31;;;-145.72;100.00
15914;BME280;8055;51.930;8.840;2023-04-15T09:23:38;76060.59;;;-145.72;100.00
15914;BME280;8055;51.930;8.840;2023-04-15T09:26:05;76058.53;;;-145.72;100.00
15914;BME280;8055;51.930;8.840;2023-04-15T09:28:31;76058.53;;;-145.72;100.00
15914;BME280;8055;51.930;8.840;2023-04-15T09:30:58;76058.53;;;-145.72;100.00
15914;BME280;8055;51.930;8.840;2023-04-15T09:33:24;76066.81;;;-145.72;100.00
15914;BME280;8055;51.930;8.840;2023-04-15T09:36:01;76064.72;;;-145.72;100.00
15914;BME280;8055;51.930;8.840;2023-04-15T09:38:28;76056.47;;;-145.72;100.00
15914;BME280;8055;51.930;8.840;2023-04-15T09:40:54;76060.59;;;-145.72;100.00
15914;BME280;8055;51.930;8.840;2023-04-15T09:43:20;76060.59;;;-145.72;100.00
15914;BME280;8055;51.930;8.840;2023-04-15T09:45:51;76058.53;;;-145.72;100.00
15914;BME280;8055;51.930;8.840;2023-04-15T09:48:24;76060.59;;;-145.72;100.00
15914;BME280;8055;51.930;8.840;2023-04-15T09:50:56;76060.59;;;-145.72;100.00
15914;BME280;8055;51.930;8.840;2023-04-15T09:53:23;76062.66;;;-145.72;100.00
15914;BME280;8055;51.930;8.840;2023-04-15T09:55:56;76064.72;;;-145.72;100.00
15914;BME280;8055;51.930;8.840;2023-04-15T09:58:28;76062.66;;;-145.72;100.00
15914;BME280;8055;51.930;8.840;2023-04-15T10:00:55;76062.66;;;-145.72;100.00
15914;BME280;8055;51.930;8.840;2023-04-15T10:03:29;76058.53;;;-145.72;100.00
15914;BME280;8055;51.930;8.840;2023-04-15T10:05:57;76054.38;;;-145.72;100.00
15914;BME280;8055;51.930;8.840;2023-04-15T10:08:26;76054.38;;;-145.72;100.00
15914;BME280;8055;51.930;8.840;2023-04-15T10:10:52;76048.19;;;-145.72;100.00
15914;BME280;8055;51.930;8.840;2023-04-15T10:13:20;76048.19;;;-145.72;100.00
15914;BME280;8055;51.930;8.840;2023-04-15T10:15:55;76039.91;;;-145.72;100.00
15914;BME280;8055;51.930;8.840;2023-04-15T10:18:24;76044.03;;;-145.72;100.00
15914;BME280;8055;51.930;8.840;2023-04-15T10:20:51;76041.97;;;-145.72;100.00
15914;BME280;8055;51.930;8.840;2023-04-15T10:23:16;76037.84;;;-145.72;100.00
15914;BME280;8055;51.930;8.840;2023-04-15T10:25:43;76039.91;;;-145.72;100.00
15914;BME280;8055;51.930;8.840;2023-04-15T10:28:10;76041.97;;;-145.72;100.00
15914;BME280;8055;51.930;8.840;2023-04-15T10:30:36;76048.19;;;-145.72;100.00
15914;BME280;8055;51.930;8.840;2023-04-15T10:33:03;76044.03;;;-145.72;100.00
15914;BME280;8055;51.930;8.840;2023-04-15T10:35:30;76041.97;;;-145.72;100.00
15914;BME280;8055;51.930;8.840;2023-04-15T10:37:56;76037.84;;;-145.72;100.00
15914;BME280;8055;51.930;8.840;2023-04-15T10:40:31;76033.69;;;-145.72;100.00
15914;BME280;8055;51.930;8.840;2023-04-15T10:43:01;76031.63;;;-145.72;100.00
15914;BME280;8055;51.930;8.840;2023-04-15T10:45:31;76029.56;;;-145.72;100.00
15914;BME280;8055;51.930;8.840;2023-04-15T10:47:58;76033.69;;;-145.72;100.00
15914;BME280;8055;51.930;8.840;2023-04-15T10:50:26;76029.56;;;-145.72;100.00
15914;BME280;8055;51.930;8.840;2023-04-15T10:52:54;76033.69;;;-145.72;100.00
15914;BME280;8055;51.930;8.840;2023-04-15T10:55:25;76033.69;;;-145.72;100.00
15914;BME280;8055;51.930;8.840;2023-04-15T10:57:57;76027.47;;;-145.72;100.00
15914;BME280;8055;51.930;8.840;2023-04-15T11:00:31;76027.47;;;-145.72;100.00
15914;BME280;8055;51.930;8.840;2023-04-15T11:03:05;76027.47;;;-145.72;100.00
15914;BME280;8055;51.930;8.840;2023-04-15T11:08:06;76031.63;;;-145.72;100.00
15914;BME280;8055;51.930;8.840;2023-04-15T11:13:01;76025.41;;;-145.72;100.00
15914;BME280;8055;51.930;8.840;2023-04-15T11:15:48;76033.69;;;-145.72;100.00
15914;BME280;8055;51.930;8.840;2023-04-15T11:20:40;76023.34;;;-145.72;100.00
15914;BME280;8055;51.930;8.840;2023-04-15T11:23:07;76023.34;;;-145.72;100.00
15914;BME280;8055;51.930;8.840;2023-04-15T11:25:34;76023.34;;;-145.72;100.00
15914;BME280;8055;51.930;8.840;2023-04-15T11:28:01;76025.41;;;-145.72;100.00
15914;BME280;8055;51.930;8.840;2023-04-15T11:30:29;76023.34;;;-145.72;100.00
15914;BME280;8055;51.930;8.840;2023-04-15T11:32:59;76023.34;;;-145.72;100.00
15914;BME280;8055;51.930;8.840;2023-04-15T11:35:25;76019.22;;;-145.72;100.00
15914;BME280;8055;51.930;8.840;2023-04-15T11:37:51;76015.06;;;-145.72;100.00
15914;BME280;8055;51.930;8.840;2023-04-15T11:40:21;76021.28;;;-145.72;100.00
15914;BME280;8055;51.930;8.840;2023-04-15T11:43:10;76023.34;;;-145.72;100.00
15914;BME280;8055;51.930;8.840;2023-04-15T11:45:37;76017.13;;;-145.72;100.00
15914;BME280;8055;51.930;8.840;2023-04-15T11:48:12;76023.34;;;-145.72;100.00
15914;BME280;8055;51.930;8.840;2023-04-15T11:50:38;76027.47;;;-145.72;100.00
15914;BME280;8055;51.930;8.840;2023-04-15T11:53:09;76025.41;;;-145.72;100.00
15914;BME280;8055;51.930;8.840;2023-04-15T11:55:46;76025.41;;;-145.72;100.00
15914;BME280;8055;51.930;8.840;2023-04-15T12:00:56;76019.22;;;-145.72;100.00
15914;BME280;8055;51.930;8.840;2023-04-15T12:03:27;76021.28;;;-145.72;100.00
15914;BME280;8055;51.930;8.840;2023-04-15T12:06:13;76023.34;;;-145.72;100.00
15914;BME280;8055;51.930;8.840;2023-04-15T12:14:08;76029.56;;;-145.72;100.00
15914;BME280;8055;51.930;8.840;2023-04-15T12:16:36;76021.28;;;-145.72;100.00
15914;BME280;8055;51.930;8.840;2023-04-15T12:19:10;76029.56;;;-145.72;100.00
15914;BME280;8055;51.930;8.840;2023-04-15T12:21:38;76031.63;;;-145.72;100.00
15914;BME280;8055;51.930;8.840;2023-04-15T12:24:06;76037.84;;;-145.72;100.00
15914;BME280;8055;51.930;8.840;2023-04-15T12:26:46;76033.69;;;-145.72;100.00
15914;BME280;8055;51.930;8.840;2023-04-15T12:29:13;76033.69;;;-145.72;100.00
15914;BME280;8055;51.930;8.840;2023-04-15T12:31:52;76037.84;;;-145.72;100.00
15914;BME280;8055;51.930;8.840;2023-04-15T12:34:26;76037.84;;;-145.72;100.00
15914;BME280;8055;51.930;8.840;2023-04-15T12:36:53;76039.91;;;-145.72;100.00
15914;BME280;8055;51.930;8.840;2023-04-15T12:39:21;76046.09;;;-145.72;100.00
15914;BME280;8055;51.930;8.840;2023-04-15T12:41:47;76046.09;;;-145.72;100.00
15914;BME280;8055;51.930;8.840;2023-04-15T12:44:13;76050.25;;;-145.72;100.00
15914;BME280;8055;51.930;8.840;2023-04-15T12:46:38;76048.19;;;-145.72;100.00
15914;BME280;8055;51.930;8.840;2023-04-15T12:49:04;76052.31;;;-145.72;100.00
15914;BME280;8055;51.930;8.840;2023-04-15T12:51:29;76050.25;;;-145.72;100.00
15914;BME280;8055;51.930;8.840;2023-04-15T12:53:56;76054.38;;;-145.72;100.00